sensor_id;sensor_type;location;lat;lon;timestamp;pressure;altitude;pressure_sealevel;temperature;humidity
79006;BME280;69202;45.498;-73.582;2023-12-07T00:01:10;101290.66;;;0.06;61.49
79006;BME280;69202;45.498;-73.582;2023-12-07T00:03:36;101297.25;;;-0.11;60.61
79006;BME280;69202;45.498;-73.582;2023-12-07T00:06:03;101294.41;;;-0.32;59.22
79006;BME280;69202;45.498;-73.582;2023-12-07T00:08:29;101280.66;;;-0.61;58.28
79006;BME280;69202;45.498;-73.582;2023-12-07T00:10:55;101298.97;;;-0.69;58.69
79006;BME280;69202;45.498;-73.582;2023-12-07T00:13:21;101301.53;;;-0.80;58.78
79006;BME280;69202;45.498;-73.582;2023-12-07T00:15:48;101302.16;;;-0.76;60.99
79006;BME280;69202;45.498;-73.582;2023-12-07T00:18:15;101308.19;;;-0.74;60.78
79006;BME280;69202;45.498;-73.582;2023-12-07T00:20:42;101309.97;;;-0.62;62.23
79006;BME280;69202;45.498;-73.582;2023-12-07T00:23:08;101310.56;;;-0.35;62.89
79006;BME280;69202;45.498;-73.582;2023-12-07T00:25:34;101306.00;;;-0.33;61.47
79006;BME280;69202;45.498;-73.582;2023-12-07T00:28:00;101308.59;;;-0.44;61.40
79006;BME280;69202;45.498;-73.582;2023-12-07T00:30:26;101308.56;;;-0.55;60.26
79006;BME280;69202;45.498;-73.582;2023-12-07T00:32:53;101300.88;;;-0.47;62.15
79006;BME280;69202;45.498;-73.582;2023-12-07T00:35:18;101306.41;;;-0.50;61.73
79006;BME280;69202;45.498;-73.582;2023-12-07T00:37:47;101321.03;;;-0.68;60.36
79006;BME280;69202;45.498;-73.582;2023-12-07T00:40:13;101308.78;;;-0.58;62.66
79006;BME280;69202;45.498;-73.582;2023-12-07T00:42:40;101310.47;;;-0.57;61.55
79006;BME280;69202;45.498;-73.582;2023-12-07T00:45:06;101302.56;;;-0.70;61.08
79006;BME280;69202;45.498;-73.582;2023-12-07T00:47:32;101304.09;;;-0.78;60.84
79006;BME280;69202;45.498;-73.582;2023-12-07T00:49:58;101300.09;;;-0.97;60.13
79006;BME280;69202;45.498;-73.582;2023-12-07T00:52:24;101307.44;;;-1.00;59.95
79006;BME280;69202;45.498;-73.582;2023-12-07T00:54:50;101313.19;;;-1.06;59.92
79006;BME280;69202;45.498;-73.582;2023-12-07T00:57:15;101303.31;;;-1.04;60.01
79006;BME280;69202;45.498;-73.582;2023-12-07T00:59:44;101305.81;;;-1.14;59.53
79006;BME280;69202;45.498;-73.582;2023-12-07T01:02:10;101304.88;;;-0.89;61.96
79006;BME280;69202;45.498;-73.582;2023-12-07T01:04:39;101298.13;;;-0.34;63.48
79006;BME280;69202;45.498;-73.582;2023-12-07T01:07:06;101303.53;;;-0.12;63.22
79006;BME280;69202;45.498;-73.582;2023-12-07T01:09:33;101298.28;;;0.11;62.55
79006;BME280;69202;45.498;-73.582;2023-12-07T01:11:59;101288.25;;;0.03;62.11
79006;BME280;69202;45.498;-73.582;2023-12-07T01:14:25;101292.22;;;0.09;63.15
79006;BME280;69202;45.498;-73.582;2023-12-07T01:16:50;101300.84;;;0.23;62.03
79006;BME280;69202;45.498;-73.582;2023-12-07T01:19:16;101289.50;;;0.21;61.61
79006;BME280;69202;45.498;-73.582;2023-12-07T01:21:42;101276.19;;;0.21;61.58
79006;BME280;69202;45.498;-73.582;2023-12-07T01:24:08;101286.25;;;0.63;62.93
79006;BME280;69202;45.498;-73.582;2023-12-07T01:26:34;101287.53;;;0.91;63.32
79006;BME280;69202;45.498;-73.582;2023-12-07T01:29:01;101280.25;;;1.58;64.45
79006;BME280;69202;45.498;-73.582;2023-12-07T01:31:26;101257.81;;;2.02;63.75
79006;BME280;69202;45.498;-73.582;2023-12-07T01:33:52;101260.59;;;2.22;63.00
79006;BME280;69202;45.498;-73.582;2023-12-07T01:36:18;101258.16;;;2.40;62.27
79006;BME280;69202;45.498;-73.582;2023-12-07T01:38:46;101265.66;;;2.25;61.17
79006;BME280;69202;45.498;-73.582;2023-12-07T01:41:13;101261.53;;;1.90;60.54
79006;BME280;69202;45.498;-73.582;2023-12-07T01:43:46;101257.31;;;1.88;61.06
79006;BME280;69202;45.498;-73.582;2023-12-07T01:46:12;101251.84;;;1.68;60.00
79006;BME280;69202;45.498;-73.582;2023-12-07T01:48:38;101258.06;;;1.58;59.72
79006;BME280;69202;45.498;-73.582;2023-12-07T01:51:05;101259.28;;;1.54;59.41
79006;BME280;69202;45.498;-73.582;2023-12-07T01:53:31;101253.19;;;1.84;60.66
79006;BME280;69202;45.498;-73.582;2023-12-07T01:55:59;101247.50;;;1.88;59.49
79006;BME280;69202;45.498;-73.582;2023-12-07T01:58:25;101252.56;;;1.70;58.47
79006;BME280;69202;45.498;-73.582;2023-12-07T02:00:51;101254.16;;;1.62;60.31
79006;BME280;69202;45.498;-73.582;2023-12-07T02:03:17;101252.22;;;2.06;60.85
79006;BME280;69202;45.498;-73.582;2023-12-07T02:05:46;101256.25;;;2.51;60.90
79006;BME280;69202;45.498;-73.582;2023-12-07T02:08:13;101262.69;;;2.49;60.13
79006;BME280;69202;45.498;-73.582;2023-12-07T02:10:40;101231.09;;;2.44;60.29
79006;BME280;69202;45.498;-73.582;2023-12-07T02:13:06;101258.94;;;3.01;59.73
79006;BME280;69202;45.498;-73.582;2023-12-07T02:15:32;101267.28;;;3.17;59.59
79006;BME280;69202;45.498;-73.582;2023-12-07T02:18:36;101267.47;;;3.45;59.28
79006;BME280;69202;45.498;-73.582;2023-12-07T02:23:51;101270.84;;;3.76;58.90
79006;BME280;69202;45.498;-73.582;2023-12-07T02:26:20;101243.47;;;4.01;58.64
79006;BME280;69202;45.498;-73.582;2023-12-07T02:28:48;101251.09;;;4.43;57.84
79006;BME280;69202;45.498;-73.582;2023-12-07T02:31:14;101253.03;;;4.60;57.71
79006;BME280;69202;45.498;-73.582;2023-12-07T02:33:40;101252.63;;;4.83;57.04
79006;BME280;69202;45.498;-73.582;2023-12-07T02:36:07;101222.97;;;4.67;54.86
79006;BME280;69202;45.498;-73.582;2023-12-07T02:38:34;101236.63;;;4.36;54.38
79006;BME280;69202;45.498;-73.582;2023-12-07T02:41:01;101230.72;;;3.86;54.04
79006;BME280;69202;45.498;-73.582;2023-12-07T02:43:28;101225.38;;;3.37;53.92
79006;BME280;69202;45.498;-73.582;2023-12-07T02:45:54;101235.50;;;3.14;54.14
79006;BME280;69202;45.498;-73.582;2023-12-07T02:48:21;101235.25;;;2.77;54.40
79006;BME280;69202;45.498;-73.582;2023-12-07T02:50:47;101241.28;;;2.39;54.16
79006;BME280;69202;45.498;-73.582;2023-12-07T02:53:13;101250.41;;;2.06;54.70
79006;BME280;69202;45.498;-73.582;2023-12-07T02:55:38;101255.50;;;2.09;56.49
79006;BME280;69202;45.498;-73.582;2023-12-07T02:58:04;101244.88;;;2.59;58.26
79006;BME280;69202;45.498;-73.582;2023-12-07T03:00:32;101248.84;;;3.05;58.60
79006;BME280;69202;45.498;-73.582;2023-12-07T03:02:58;101247.03;;;3.25;57.17
79006;BME280;69202;45.498;-73.582;2023-12-07T03:05:23;101247.16;;;3.13;57.12
79006;BME280;69202;45.498;-73.582;2023-12-07T03:07:49;101244.19;;;2.97;57.85
79006;BME280;69202;45.498;-73.582;2023-12-07T03:10:15;101245.09;;;3.36;57.50
79006;BME280;69202;45.498;-73.582;2023-12-07T03:12:41;101233.81;;;3.33;57.53
79006;BME280;69202;45.498;-73.582;2023-12-07T03:15:07;101236.78;;;3.49;57.14
79006;BME280;69202;45.498;-73.582;2023-12-07T03:17:35;101237.31;;;3.62;57.22
79006;BME280;69202;45.498;-73.582;2023-12-07T03:20:01;101238.91;;;3.65;56.35
79006;BME280;69202;45.498;-73.582;2023-12-07T03:22:26;101235.22;;;3.75;55.83
79006;BME280;69202;45.498;-73.582;2023-12-07T03:24:52;101241.44;;;3.57;54.66
79006;BME280;69202;45.498;-73.582;2023-12-07T03:27:18;101246.97;;;2.86;53.83
79006;BME280;69202;45.498;-73.582;2023-12-07T03:29:45;101245.75;;;2.29;53.94
79006;BME280;69202;45.498;-73.582;2023-12-07T03:32:11;101260.16;;;1.75;53.43
79006;BME280;69202;45.498;-73.582;2023-12-07T03:34:37;101258.25;;;1.34;53.80
79006;BME280;69202;45.498;-73.582;2023-12-07T03:37:03;101262.06;;;1.20;55.31
79006;BME280;69202;45.498;-73.582;2023-12-07T03:39:29;101249.94;;;0.84;54.21
79006;BME280;69202;45.498;-73.582;2023-12-07T03:41:58;101270.75;;;0.56;54.30
79006;BME280;69202;45.498;-73.582;2023-12-07T03:44:27;101270.38;;;0.27;54.55
79006;BME280;69202;45.498;-73.582;2023-12-07T03:46:53;101251.97;;;-0.09;55.21
79006;BME280;69202;45.498;-73.582;2023-12-07T03:49:19;101277.34;;;-0.05;55.67
79006;BME280;69202;45.498;-73.582;2023-12-07T03:51:46;101280.31;;;-0.21;55.15
79006;BME280;69202;45.498;-73.582;2023-12-07T03:54:14;101277.56;;;-0.43;55.28
79006;BME280;69202;45.498;-73.582;2023-12-07T03:56:40;101284.28;;;-0.62;55.29
79006;BME280;69202;45.498;-73.582;2023-12-07T03:59:07;101279.75;;;-0.72;55.63
79006;BME280;69202;45.498;-73.582;2023-12-07T04:01:33;101271.09;;;-0.87;55.85
79006;BME280;69202;45.498;-73.582;2023-12-07T04:03:59;101282.84;;;-1.02;55.91
79006;BME280;69202;45.498;-73.582;2023-12-07T04:06:26;101284.59;;;-0.90;57.53
79006;BME280;69202;45.498;-73.582;2023-12-07T04:08:52;101280.97;;;-0.65;58.61
79006;BME280;69202;45.498;-73.582;2023-12-07T04:11:18;101269.16;;;-0.85;57.56
79006;BME280;69202;45.498;-73.582;2023-12-07T04:13:44;101259.56;;;-0.99;57.61
79006;BME280;69202;45.498;-73.582;2023-12-07T04:16:10;101262.56;;;-1.03;57.33
79006;BME280;69202;45.498;-73.582;2023-12-07T04:18:37;101264.94;;;-0.88;58.40
79006;BME280;69202;45.498;-73.582;2023-12-07T04:21:03;101257.31;;;-0.68;59.10
79006;BME280;69202;45.498;-73.582;2023-12-07T04:23:29;101257.09;;;-0.65;58.37
79006;BME280;69202;45.498;-73.582;2023-12-07T04:25:55;101240.25;;;-0.42;59.21
79006;BME280;69202;45.498;-73.582;2023-12-07T04:28:21;101249.53;;;-0.12;59.62
79006;BME280;69202;45.498;-73.582;2023-12-07T04:30:47;101246.09;;;0.32;60.83
79006;BME280;69202;45.498;-73.582;2023-12-07T04:33:13;101239.31;;;0.28;59.37
79006;BME280;69202;45.498;-73.582;2023-12-07T04:35:39;101241.81;;;-0.04;59.09
79006;BME280;69202;45.498;-73.582;2023-12-07T04:38:05;101244.22;;;-0.12;58.96
79006;BME280;69202;45.498;-73.582;2023-12-07T04:40:32;101235.06;;;-0.08;58.83
79006;BME280;69202;45.498;-73.582;2023-12-07T04:42:57;101230.72;;;-0.09;59.09
79006;BME280;69202;45.498;-73.582;2023-12-07T04:45:23;101225.97;;;-0.17;58.72
79006;BME280;69202;45.498;-73.582;2023-12-07T04:47:49;101236.81;;;-0.31;58.00
79006;BME280;69202;45.498;-73.582;2023-12-07T04:50:15;101244.13;;;-0.46;58.02
79006;BME280;69202;45.498;-73.582;2023-12-07T04:52:42;101245.91;;;-0.57;57.83
79006;BME280;69202;45.498;-73.582;2023-12-07T04:55:08;101249.63;;;-0.60;58.59
79006;BME280;69202;45.498;-73.582;2023-12-07T04:57:35;101205.69;;;-0.88;58.20
79006;BME280;69202;45.498;-73.582;2023-12-07T05:00:03;101253.22;;;-0.72;57.60
79006;BME280;69202;45.498;-73.582;2023-12-07T05:02:32;101257.38;;;-0.81;57.67
79006;BME280;69202;45.498;-73.582;2023-12-07T05:04:58;101249.41;;;-0.81;58.12
79006;BME280;69202;45.498;-73.582;2023-12-07T05:07:24;101244.22;;;-0.82;58.30
79006;BME280;69202;45.498;-73.582;2023-12-07T05:09:50;101244.78;;;-0.90;58.48
79006;BME280;69202;45.498;-73.582;2023-12-07T05:12:19;101242.91;;;-0.77;59.17
79006;BME280;69202;45.498;-73.582;2023-12-07T05:14:46;101242.50;;;-0.83;57.75
79006;BME280;69202;45.498;-73.582;2023-12-07T05:17:12;101231.75;;;-0.93;58.44
79006;BME280;69202;45.498;-73.582;2023-12-07T05:19:41;101240.31;;;-0.90;58.77
79006;BME280;69202;45.498;-73.582;2023-12-07T05:22:08;101249.56;;;-0.95;58.17
79006;BME280;69202;45.498;-73.582;2023-12-07T05:24:35;101253.31;;;-0.98;58.12
79006;BME280;69202;45.498;-73.582;2023-12-07T05:27:02;101209.25;;;-1.00;59.84
79006;BME280;69202;45.498;-73.582;2023-12-07T05:29:29;101247.97;;;-0.74;59.57
79006;BME280;69202;45.498;-73.582;2023-12-07T05:31:56;101243.31;;;-0.70;59.22
79006;BME280;69202;45.498;-73.582;2023-12-07T05:34:22;101239.22;;;-0.63;59.14
79006;BME280;69202;45.498;-73.582;2023-12-07T05:36:48;101240.31;;;-0.66;58.92
79006;BME280;69202;45.498;-73.582;2023-12-07T05:39:14;101249.59;;;-0.71;58.96
79006;BME280;69202;45.498;-73.582;2023-12-07T05:41:40;101243.25;;;-0.57;59.65
79006;BME280;69202;45.498;-73.582;2023-12-07T05:44:07;101231.22;;;-0.74;58.27
79006;BME280;69202;45.498;-73.582;2023-12-07T05:46:35;101237.13;;;-0.82;58.11
79006;BME280;69202;45.498;-73.582;2023-12-07T05:49:01;101206.78;;;-1.14;57.36
79006;BME280;69202;45.498;-73.582;2023-12-07T05:51:27;101226.03;;;-1.00;58.73
79006;BME280;69202;45.498;-73.582;2023-12-07T05:53:53;101231.56;;;-0.79;59.28
79006;BME280;69202;45.498;-73.582;2023-12-07T05:56:20;101238.44;;;-0.76;58.94
79006;BME280;69202;45.498;-73.582;2023-12-07T05:58:46;101227.47;;;-0.83;59.06
79006;BME280;69202;45.498;-73.582;2023-12-07T06:01:16;101213.47;;;-0.50;61.48
79006;BME280;69202;45.498;-73.582;2023-12-07T06:03:43;101213.16;;;-0.23;61.34
79006;BME280;69202;45.498;-73.582;2023-12-07T06:06:10;101213.22;;;0.11;61.34
79006;BME280;69202;45.498;-73.582;2023-12-07T06:08:37;101209.22;;;0.05;59.65
79006;BME280;69202;45.498;-73.582;2023-12-07T06:11:04;101202.09;;;0.06;60.84
79006;BME280;69202;45.498;-73.582;2023-12-07T06:13:31;101208.50;;;0.03;60.18
79006;BME280;69202;45.498;-73.582;2023-12-07T06:15:57;101204.88;;;0.15;60.53
79006;BME280;69202;45.498;-73.582;2023-12-07T06:18:23;101150.88;;;0.04;62.05
79006;BME280;69202;45.498;-73.582;2023-12-07T06:20:49;101207.16;;;0.65;61.25
79006;BME280;69202;45.498;-73.582;2023-12-07T06:23:15;101211.38;;;0.67;60.23
79006;BME280;69202;45.498;-73.582;2023-12-07T06:25:41;101206.19;;;0.54;60.08
79006;BME280;69202;45.498;-73.582;2023-12-07T06:28:07;101209.59;;;0.45;59.53
79006;BME280;69202;45.498;-73.582;2023-12-07T06:30:33;101195.69;;;0.42;60.66
79006;BME280;69202;45.498;-73.582;2023-12-07T06:33:00;101191.31;;;1.06;61.84
79006;BME280;69202;45.498;-73.582;2023-12-07T06:35:26;101186.00;;;1.59;60.66
79006;BME280;69202;45.498;-73.582;2023-12-07T06:37:52;101193.91;;;1.70;61.05
79006;BME280;69202;45.498;-73.582;2023-12-07T06:40:18;101160.53;;;1.76;60.00
79006;BME280;69202;45.498;-73.582;2023-12-07T06:42:45;101188.56;;;1.91;59.47
79006;BME280;69202;45.498;-73.582;2023-12-07T06:45:11;101194.56;;;1.84;58.87
79006;BME280;69202;45.498;-73.582;2023-12-07T06:47:42;101183.75;;;1.64;57.84
79006;BME280;69202;45.498;-73.582;2023-12-07T06:50:09;101177.34;;;1.46;58.57
79006;BME280;69202;45.498;-73.582;2023-12-07T06:52:39;101153.66;;;1.32;57.98
79006;BME280;69202;45.498;-73.582;2023-12-07T06:55:05;101179.75;;;1.49;58.09
79006;BME280;69202;45.498;-73.582;2023-12-07T06:57:32;101180.72;;;1.27;58.16
79006;BME280;69202;45.498;-73.582;2023-12-07T07:00:00;101163.47;;;1.10;57.84
79006;BME280;69202;45.498;-73.582;2023-12-07T07:02:27;101157.97;;;0.91;57.11
79006;BME280;69202;45.498;-73.582;2023-12-07T07:04:52;101162.38;;;0.70;57.19
79006;BME280;69202;45.498;-73.582;2023-12-07T07:07:18;101165.66;;;0.62;57.51
79006;BME280;69202;45.498;-73.582;2023-12-07T07:09:44;101171.75;;;0.31;56.98
79006;BME280;69202;45.498;-73.582;2023-12-07T07:12:11;101176.84;;;0.00;56.60
79006;BME280;69202;45.498;-73.582;2023-12-07T07:14:37;101187.44;;;-0.22;55.85
79006;BME280;69202;45.498;-73.582;2023-12-07T07:17:03;101178.69;;;-0.47;55.99
79006;BME280;69202;45.498;-73.582;2023-12-07T07:19:30;101186.66;;;-0.47;57.02
79006;BME280;69202;45.498;-73.582;2023-12-07T07:21:56;101194.66;;;-0.36;57.99
79006;BME280;69202;45.498;-73.582;2023-12-07T07:24:21;101202.28;;;-0.31;57.67
79006;BME280;69202;45.498;-73.582;2023-12-07T07:26:49;101199.53;;;-0.18;58.59
79006;BME280;69202;45.498;-73.582;2023-12-07T07:29:15;101199.38;;;-0.28;57.94
79006;BME280;69202;45.498;-73.582;2023-12-07T07:31:40;101200.41;;;-0.53;57.15
79006;BME280;69202;45.498;-73.582;2023-12-07T07:34:06;101193.75;;;-0.59;58.08
79006;BME280;69202;45.498;-73.582;2023-12-07T07:36:33;101191.94;;;-0.58;58.89
79006;BME280;69202;45.498;-73.582;2023-12-07T07:38:59;101200.19;;;-0.50;58.67
79006;BME280;69202;45.498;-73.582;2023-12-07T07:41:25;101206.50;;;-0.64;57.66
79006;BME280;69202;45.498;-73.582;2023-12-07T07:43:51;101196.38;;;-0.70;59.04
79006;BME280;69202;45.498;-73.582;2023-12-07T07:46:17;101199.72;;;-0.33;60.82
79006;BME280;69202;45.498;-73.582;2023-12-07T07:48:42;101199.41;;;-0.17;60.70
79006;BME280;69202;45.498;-73.582;2023-12-07T07:51:08;101190.94;;;-0.11;59.38
79006;BME280;69202;45.498;-73.582;2023-12-07T07:53:34;101199.41;;;-0.17;59.35
79006;BME280;69202;45.498;-73.582;2023-12-07T07:56:00;101183.91;;;-0.34;59.27
79006;BME280;69202;45.498;-73.582;2023-12-07T07:58:26;101190.34;;;-0.03;60.69
79006;BME280;69202;45.498;-73.582;2023-12-07T08:00:52;101158.09;;;0.35;61.10
79006;BME280;69202;45.498;-73.582;2023-12-07T08:03:18;101185.34;;;0.71;60.85
79006;BME280;69202;45.498;-73.582;2023-12-07T08:05:43;101178.38;;;0.47;59.29
79006;BME280;69202;45.498;-73.582;2023-12-07T08:08:10;101179.13;;;0.16;58.72
79006;BME280;69202;45.498;-73.582;2023-12-07T08:10:36;101174.66;;;0.16;60.31
79006;BME280;69202;45.498;-73.582;2023-12-07T08:13:01;101173.81;;;0.27;59.59
79006;BME280;69202;45.498;-73.582;2023-12-07T08:15:27;101181.78;;;0.38;60.34
79006;BME280;69202;45.498;-73.582;2023-12-07T08:17:53;101179.94;;;0.50;60.05
79006;BME280;69202;45.498;-73.582;2023-12-07T08:20:21;101173.78;;;0.38;59.41
79006;BME280;69202;45.498;-73.582;2023-12-07T08:22:47;101182.75;;;0.37;60.46
79006;BME280;69202;45.498;-73.582;2023-12-07T08:25:13;101184.19;;;0.30;58.55
79006;BME280;69202;45.498;-73.582;2023-12-07T08:27:39;101179.50;;;0.00;57.93
79006;BME280;69202;45.498;-73.582;2023-12-07T08:30:06;101152.94;;;0.00;59.50
79006;BME280;69202;45.498;-73.582;2023-12-07T08:32:35;101185.16;;;0.07;59.62
79006;BME280;69202;45.498;-73.582;2023-12-07T08:35:01;101159.44;;;-0.04;59.02
79006;BME280;69202;45.498;-73.582;2023-12-07T08:37:27;101185.53;;;-0.09;58.71
79006;BME280;69202;45.498;-73.582;2023-12-07T08:39:54;101177.63;;;-0.33;57.98
79006;BME280;69202;45.498;-73.582;2023-12-07T08:42:20;101174.25;;;-0.24;58.98
79006;BME280;69202;45.498;-73.582;2023-12-07T08:44:46;101170.88;;;-0.37;57.62
79006;BME280;69202;45.498;-73.582;2023-12-07T08:47:12;101173.38;;;-0.47;57.99
79006;BME280;69202;45.498;-73.582;2023-12-07T08:49:37;101170.28;;;-0.41;59.06
79006;BME280;69202;45.498;-73.582;2023-12-07T08:52:03;101171.53;;;-0.57;57.72
79006;BME280;69202;45.498;-73.582;2023-12-07T08:54:32;101176.44;;;-0.75;57.66
79006;BME280;69202;45.498;-73.582;2023-12-07T08:56:58;101177.28;;;-0.75;58.12
79006;BME280;69202;45.498;-73.582;2023-12-07T08:59:23;101161.88;;;-0.59;59.61
79006;BME280;69202;45.498;-73.582;2023-12-07T09:01:49;101161.00;;;-0.13;59.14
79006;BME280;69202;45.498;-73.582;2023-12-07T09:04:15;101148.38;;;-0.55;58.09
79006;BME280;69202;45.498;-73.582;2023-12-07T09:06:41;101164.66;;;-0.60;59.27
79006;BME280;69202;45.498;-73.582;2023-12-07T09:09:08;101168.00;;;-0.69;57.92
79006;BME280;69202;45.498;-73.582;2023-12-07T09:11:33;101160.63;;;-0.77;57.90
79006;BME280;69202;45.498;-73.582;2023-12-07T09:13:59;101167.69;;;-0.89;57.63
79006;BME280;69202;45.498;-73.582;2023-12-07T09:16:26;101169.28;;;-0.86;58.45
79006;BME280;69202;45.498;-73.582;2023-12-07T09:18:52;101166.28;;;-0.81;57.98
79006;BME280;69202;45.498;-73.582;2023-12-07T09:21:18;101171.59;;;-0.81;58.16
79006;BME280;69202;45.498;-73.582;2023-12-07T09:23:44;101183.06;;;-0.81;57.88
79006;BME280;69202;45.498;-73.582;2023-12-07T09:26:10;101183.06;;;-0.81;57.90
79006;BME280;69202;45.498;-73.582;2023-12-07T09:28:36;101170.78;;;-0.95;57.48
79006;BME280;69202;45.498;-73.582;2023-12-07T09:31:02;101175.63;;;-1.00;56.86
79006;BME280;69202;45.498;-73.582;2023-12-07T09:33:28;101156.38;;;-1.14;57.77
79006;BME280;69202;45.498;-73.582;2023-12-07T09:35:54;101171.72;;;-1.07;57.45
79006;BME280;69202;45.498;-73.582;2023-12-07T09:38:20;101180.88;;;-1.11;57.87
79006;BME280;69202;45.498;-73.582;2023-12-07T09:40:46;101181.25;;;-1.04;58.87
79006;BME280;69202;45.498;-73.582;2023-12-07T09:43:12;101172.59;;;-0.95;58.64
79006;BME280;69202;45.498;-73.582;2023-12-07T09:45:39;101173.97;;;-0.90;58.81
79006;BME280;69202;45.498;-73.582;2023-12-07T09:48:05;101166.44;;;-0.96;58.09
79006;BME280;69202;45.498;-73.582;2023-12-07T09:50:33;101123.19;;;-1.20;57.88
79006;BME280;69202;45.498;-73.582;2023-12-07T09:52:59;101161.91;;;-0.94;59.00
79006;BME280;69202;45.498;-73.582;2023-12-07T09:55:25;101145.59;;;-1.00;58.37
79006;BME280;69202;45.498;-73.582;2023-12-07T09:57:51;101155.63;;;-0.93;58.62
79006;BME280;69202;45.498;-73.582;2023-12-07T10:00:20;101153.19;;;-0.96;58.35
79006;BME280;69202;45.498;-73.582;2023-12-07T10:02:46;101147.63;;;-1.04;58.10
79006;BME280;69202;45.498;-73.582;2023-12-07T10:05:14;101146.75;;;-1.04;59.11
79006;BME280;69202;45.498;-73.582;2023-12-07T10:07:43;101136.06;;;-1.03;58.28
79006;BME280;69202;45.498;-73.582;2023-12-07T10:10:10;101136.25;;;-1.06;58.86
79006;BME280;69202;45.498;-73.582;2023-12-07T10:12:51;101122.31;;;-0.97;59.06
79006;BME280;69202;45.498;-73.582;2023-12-07T10:15:19;101117.13;;;-0.98;58.68
79006;BME280;69202;45.498;-73.582;2023-12-07T10:17:56;101123.16;;;-0.96;58.80
79006;BME280;69202;45.498;-73.582;2023-12-07T10:20:29;101114.22;;;-0.95;59.03
79006;BME280;69202;45.498;-73.582;2023-12-07T10:23:06;101111.09;;;-1.00;58.80
79006;BME280;69202;45.498;-73.582;2023-12-07T10:25:42;101110.47;;;-1.04;58.90
79006;BME280;69202;45.498;-73.582;2023-12-07T10:28:09;101097.06;;;-1.13;58.67
79006;BME280;69202;45.498;-73.582;2023-12-07T10:30:45;101115.03;;;-1.06;58.53
79006;BME280;69202;45.498;-73.582;2023-12-07T10:33:11;101113.13;;;-1.04;58.63
79006;BME280;69202;45.498;-73.582;2023-12-07T10:35:47;101114.91;;;-1.04;58.60
79006;BME280;69202;45.498;-73.582;2023-12-07T10:38:17;101112.91;;;-1.01;58.55
79006;BME280;69202;45.498;-73.582;2023-12-07T10:40:46;101126.88;;;-0.99;58.33
79006;BME280;69202;45.498;-73.582;2023-12-07T10:43:12;101129.66;;;-1.00;58.64
79006;BME280;69202;45.498;-73.582;2023-12-07T10:45:41;101129.78;;;-1.02;58.58
79006;BME280;69202;45.498;-73.582;2023-12-07T10:48:09;101134.97;;;-1.00;58.60
79006;BME280;69202;45.498;-73.582;2023-12-07T10:50:44;101119.78;;;-0.98;58.81
79006;BME280;69202;45.498;-73.582;2023-12-07T10:53:38;101126.63;;;-0.72;60.20
79006;BME280;69202;45.498;-73.582;2023-12-07T10:56:17;101124.00;;;-0.61;60.01
79006;BME280;69202;45.498;-73.582;2023-12-07T10:58:52;101114.72;;;-0.33;61.15
79006;BME280;69202;45.498;-73.582;2023-12-07T11:01:18;101125.84;;;-0.39;59.51
79006;BME280;69202;45.498;-73.582;2023-12-07T11:03:46;101094.44;;;-0.45;60.56
79006;BME280;69202;45.498;-73.582;2023-12-07T11:06:15;101119.19;;;-0.33;59.79
79006;BME280;69202;45.498;-73.582;2023-12-07T11:08:52;101094.66;;;-0.59;59.54
79006;BME280;69202;45.498;-73.582;2023-12-07T11:11:44;101132.44;;;-0.55;58.94
79006;BME280;69202;45.498;-73.582;2023-12-07T11:14:13;101137.03;;;-0.57;58.47
79006;BME280;69202;45.498;-73.582;2023-12-07T11:16:42;101136.50;;;-0.63;58.56
79006;BME280;69202;45.498;-73.582;2023-12-07T11:22:07;101140.78;;;-0.84;58.13
79006;BME280;69202;45.498;-73.582;2023-12-07T11:24:33;101110.19;;;-1.12;57.62
79006;BME280;69202;45.498;-73.582;2023-12-07T11:27:01;101116.69;;;-1.16;57.41
79006;BME280;69202;45.498;-73.582;2023-12-07T11:29:31;101135.88;;;-1.12;57.91
79006;BME280;69202;45.498;-73.582;2023-12-07T11:32:01;101126.13;;;-1.12;58.00
79006;BME280;69202;45.498;-73.582;2023-12-07T11:34:39;101131.06;;;-1.07;58.58
79006;BME280;69202;45.498;-73.582;2023-12-07T11:37:10;101128.19;;;-1.04;58.60
79006;BME280;69202;45.498;-73.582;2023-12-07T11:39:41;101123.09;;;-1.07;58.15
79006;BME280;69202;45.498;-73.582;2023-12-07T11:42:11;101119.16;;;-1.02;58.80
79006;BME280;69202;45.498;-73.582;2023-12-07T11:44:38;101117.00;;;-0.97;58.67
79006;BME280;69202;45.498;-73.582;2023-12-07T11:47:05;101120.16;;;-0.92;58.52
79006;BME280;69202;45.498;-73.582;2023-12-07T11:49:32;101112.91;;;-1.01;58.62
79006;BME280;69202;45.498;-73.582;2023-12-07T11:51:58;101120.34;;;-1.06;58.14
79006;BME280;69202;45.498;-73.582;2023-12-07T11:54:25;101120.09;;;-1.14;57.29
79006;BME280;69202;45.498;-73.582;2023-12-07T11:56:55;101085.84;;;-1.41;57.31
79006;BME280;69202;45.498;-73.582;2023-12-07T11:59:22;101111.78;;;-1.33;57.34
79006;BME280;69202;45.498;-73.582;2023-12-07T12:01:51;101113.81;;;-1.37;57.66
79006;BME280;69202;45.498;-73.582;2023-12-07T12:04:17;101111.44;;;-1.29;58.74
79006;BME280;69202;45.498;-73.582;2023-12-07T12:06:44;101100.16;;;-1.20;59.08
79006;BME280;69202;45.498;-73.582;2023-12-07T12:09:14;101099.44;;;-1.22;58.30
79006;BME280;69202;45.498;-73.582;2023-12-07T12:11:48;101065.06;;;-1.47;57.77
79006;BME280;69202;45.498;-73.582;2023-12-07T12:14:15;101087.94;;;-1.33;58.54
79006;BME280;69202;45.498;-73.582;2023-12-07T12:16:48;101094.81;;;-1.31;58.26
79006;BME280;69202;45.498;-73.582;2023-12-07T12:19:15;101082.81;;;-1.36;57.99
79006;BME280;69202;45.498;-73.582;2023-12-07T12:21:41;101085.16;;;-1.32;58.15
79006;BME280;69202;45.498;-73.582;2023-12-07T12:24:10;101093.22;;;-1.33;58.26
79006;BME280;69202;45.498;-73.582;2023-12-07T12:26:41;101082.09;;;-1.38;57.42
79006;BME280;69202;45.498;-73.582;2023-12-07T12:29:08;101086.56;;;-1.39;58.04
79006;BME280;69202;45.498;-73.582;2023-12-07T12:31:35;101055.25;;;-1.58;58.27
79006;BME280;69202;45.498;-73.582;2023-12-07T12:34:01;101079.34;;;-1.37;58.28
79006;BME280;69202;45.498;-73.582;2023-12-07T12:36:27;101079.00;;;-1.32;58.09
79006;BME280;69202;45.498;-73.582;2023-12-07T12:38:55;101081.66;;;-1.32;58.10